Time;durP1;ratioP1;P1;durP2;ratioP2;P2;SDS_P1;SDS_P2;PMS_P1;PMS_P2;Temp;Humidity;BMP_temperature;BMP_pressure;BME280_temperature;BME280_humidity;BME280_pressure;Samples;Min_cycle;Max_cycle;Signal;HPM_P1;HPM_P2
2023/10/21 00:00:41;;;;;;;1.27;1.10;;;11.40;99.90;;;;;;5011299;28;20330;-32
2023/10/21 00:03:07;;;;;;;1.37;1.20;;;11.40;99.90;;;;;;5018433;28;20272;-35
2023/10/21 00:05:33;;;;;;;2.27;1.30;;;11.30;99.90;;;;;;5022374;28;20204;-30
2023/10/21 00:07:58;;;;;;;2.17;1.40;;;11.30;99.90;;;;;;5032949;28;20175;-32
2023/10/21 00:10:24;;;;;;;2.13;1.60;;;11.30;99.90;;;;;;5013683;28;20201;-30
2023/10/21 00:12:50;;;;;;;1.30;1.20;;;11.30;99.90;;;;;;5011058;28;20190;-32
2023/10/21 00:15:16;;;;;;;4.23;1.40;;;11.40;99.90;;;;;;5028711;28;20314;-31
2023/10/21 00:17:42;;;;;;;1.63;1.27;;;11.40;99.90;;;;;;5012399;28;20289;-30
2023/10/21 00:20:08;;;;;;;1.53;1.13;;;11.40;99.90;;;;;;5013373;28;20206;-30
2023/10/21 00:22:38;;;;;;;1.50;1.00;;;11.40;99.90;;;;;;5028703;28;20182;-30
2023/10/21 00:25:04;;;;;;;1.07;0.90;;;11.40;99.90;;;;;;5013169;28;20205;-31
2023/10/21 00:27:30;;;;;;;1.93;1.00;;;11.40;99.90;;;;;;5029005;28;20178;-32
2023/10/21 00:29:56;;;;;;;1.23;1.10;;;11.40;99.90;;;;;;5028920;28;20201;-32
2023/10/21 00:32:22;;;;;;;1.73;0.80;;;11.40;99.90;;;;;;5013209;28;20185;-31
2023/10/21 00:34:49;;;;;;;1.33;0.80;;;11.50;99.90;;;;;;5028837;28;20213;-29
2023/10/21 00:37:15;;;;;;;1.10;1.00;;;11.50;99.90;;;;;;5030295;28;20210;-32
2023/10/21 00:39:42;;;;;;;1.00;0.90;;;11.50;99.90;;;;;;5029135;28;20212;-32
2023/10/21 00:42:08;;;;;;;1.97;1.00;;;11.50;99.90;;;;;;5028892;28;20223;-31
2023/10/21 00:44:34;;;;;;;1.70;0.90;;;11.40;99.90;;;;;;5009537;28;20253;-30
2023/10/21 00:47:00;;;;;;;2.73;1.10;;;11.40;99.90;;;;;;5011520;28;20186;-30
2023/10/21 00:49:30;;;;;;;1.07;0.97;;;11.50;99.90;;;;;;5013149;28;20179;-29
2023/10/21 00:51:57;;;;;;;0.57;0.57;;;11.70;99.90;;;;;;5025504;28;20185;-31
2023/10/21 00:54:26;;;;;;;1.00;0.73;;;11.90;99.90;;;;;;5028139;28;20214;-33
2023/10/21 00:56:53;;;;;;;1.33;0.50;;;12.00;99.90;;;;;;5029387;28;20186;-33
2023/10/21 00:59:19;;;;;;;1.73;0.60;;;12.10;99.90;;;;;;5032056;28;20186;-32
2023/10/21 01:01:46;;;;;;;0.60;0.60;;;12.20;99.90;;;;;;5016852;28;20217;-31
2023/10/21 01:04:13;;;;;;;0.90;0.60;;;12.30;99.90;;;;;;5017883;28;20252;-30
2023/10/21 01:06:40;;;;;;;0.57;0.53;;;12.30;99.90;;;;;;5020269;28;20183;-32
2023/10/21 01:09:06;;;;;;;1.43;0.60;;;12.30;99.90;;;;;;5034846;28;20202;-34
2023/10/21 01:11:32;;;;;;;0.67;0.60;;;12.40;99.90;;;;;;5033342;28;20179;-33
2023/10/21 01:13:58;;;;;;;0.40;0.40;;;12.40;99.90;;;;;;5033061;28;20198;-36
2023/10/21 01:16:23;;;;;;;0.60;0.60;;;12.50;99.90;;;;;;5016069;28;20274;-35
2023/10/21 01:18:49;;;;;;;0.60;0.60;;;12.50;99.90;;;;;;5037159;28;20217;-32
2023/10/21 01:21:15;;;;;;;1.17;0.60;;;12.60;99.90;;;;;;5016088;28;20198;-30
2023/10/21 01:23:41;;;;;;;1.37;0.60;;;12.60;99.90;;;;;;5017607;28;20228;-32
2023/10/21 01:26:07;;;;;;;1.20;0.60;;;12.70;99.90;;;;;;5016303;28;20181;-31
2023/10/21 01:28:34;;;;;;;0.80;0.80;;;12.70;99.90;;;;;;5013623;28;20181;-31
2023/10/21 01:31:00;;;;;;;1.23;0.80;;;12.80;99.90;;;;;;5033889;28;20193;-30
2023/10/21 01:33:26;;;;;;;0.73;0.50;;;12.80;99.90;;;;;;5032898;28;20204;-30
2023/10/21 01:35:52;;;;;;;1.10;0.57;;;12.70;99.90;;;;;;5016709;28;20213;-35
2023/10/21 01:38:18;;;;;;;0.70;0.50;;;12.70;99.90;;;;;;5033647;28;20190;-33
2023/10/21 01:40:45;;;;;;;0.53;0.50;;;12.70;99.90;;;;;;5034144;28;20205;-32
2023/10/21 01:43:11;;;;;;;1.73;0.60;;;12.70;99.90;;;;;;5032031;28;20181;-31
2023/10/21 01:45:37;;;;;;;0.63;0.50;;;12.70;99.90;;;;;;5026439;28;20209;-32
2023/10/21 01:48:05;;;;;;;0.60;0.43;;;12.60;99.90;;;;;;5014764;28;20369;-31
2023/10/21 01:50:31;;;;;;;1.60;0.67;;;12.70;99.90;;;;;;5031039;28;20182;-32
2023/10/21 01:52:58;;;;;;;1.50;0.50;;;12.60;99.90;;;;;;5016845;28;20185;-32
2023/10/21 01:55:24;;;;;;;1.07;0.40;;;12.60;99.90;;;;;;5018622;28;20242;-32
2023/10/21 01:57:51;;;;;;;0.40;0.40;;;12.70;99.90;;;;;;5006478;28;20194;-31
2023/10/21 02:00:20;;;;;;;0.40;0.40;;;12.70;99.90;;;;;;5019841;28;20208;-29
2023/10/21 02:02:54;;;;;;;0.40;0.30;;;12.80;99.90;;;;;;5028844;28;20273;-30
2023/10/21 02:05:22;;;;;;;0.47;0.47;;;12.90;99.90;;;;;;5029635;28;20199;-30
2023/10/21 02:07:48;;;;;;;0.57;0.40;;;12.90;99.90;;;;;;5031354;28;20254;-29
2023/10/21 02:10:14;;;;;;;0.50;0.50;;;12.90;99.90;;;;;;5015364;28;20193;-29
2023/10/21 02:12:40;;;;;;;1.37;0.53;;;13.00;99.90;;;;;;5033473;28;20179;-32
2023/10/21 02:15:11;;;;;;;0.70;0.53;;;12.90;99.90;;;;;;5014392;28;20214;-31
2023/10/21 02:17:44;;;;;;;0.63;0.40;;;12.90;99.90;;;;;;5015647;28;20186;-29
2023/10/21 02:20:14;;;;;;;0.50;0.50;;;13.00;99.90;;;;;;5018306;28;20178;-32
2023/10/21 02:22:40;;;;;;;0.57;0.40;;;13.00;99.90;;;;;;5030291;28;20179;-32
2023/10/21 02:25:11;;;;;;;1.20;0.37;;;13.00;99.90;;;;;;5017213;28;20198;-32
2023/10/21 02:27:39;;;;;;;0.87;0.70;;;13.00;99.90;;;;;;5013226;28;20178;-30
2023/10/21 02:30:16;;;;;;;0.33;0.33;;;13.00;99.90;;;;;;5005372;28;20213;-32
2023/10/21 02:32:46;;;;;;;1.47;0.40;;;13.00;99.90;;;;;;5026958;28;20236;-32
2023/10/21 02:35:13;;;;;;;0.50;0.40;;;13.00;99.90;;;;;;5012386;28;20284;-33
2023/10/21 02:37:39;;;;;;;0.90;0.30;;;13.00;99.90;;;;;;5017632;28;20190;-33
2023/10/21 02:40:05;;;;;;;1.60;0.40;;;13.00;99.90;;;;;;5014896;28;20251;-34
2023/10/21 02:42:31;;;;;;;0.50;0.50;;;12.90;99.90;;;;;;5015114;28;20245;-33
2023/10/21 02:44:57;;;;;;;0.60;0.40;;;12.90;99.90;;;;;;5015091;28;20194;-32
2023/10/21 02:47:23;;;;;;;0.97;0.40;;;12.80;99.90;;;;;;5030888;28;20191;-32
2023/10/21 02:49:48;;;;;;;0.30;0.30;;;12.80;99.90;;;;;;5028512;28;20178;-30
2023/10/21 02:52:14;;;;;;;0.63;0.30;;;12.70;99.90;;;;;;5012139;28;20193;-32
2023/10/21 02:54:40;;;;;;;0.57;0.50;;;12.70;99.90;;;;;;5012673;28;20203;-32
2023/10/21 02:57:06;;;;;;;0.60;0.40;;;12.60;99.90;;;;;;5012519;28;20274;-32
2023/10/21 02:59:33;;;;;;;0.40;0.40;;;12.60;99.90;;;;;;5013090;28;20191;-33
2023/10/21 03:01:59;;;;;;;0.57;0.40;;;12.60;99.90;;;;;;5028114;28;20206;-30
2023/10/21 03:04:25;;;;;;;0.97;0.50;;;12.60;99.90;;;;;;5034233;28;20205;-30
2023/10/21 03:06:51;;;;;;;0.30;0.30;;;12.50;99.90;;;;;;5015760;28;20179;-30
2023/10/21 03:09:16;;;;;;;0.30;0.30;;;12.50;99.90;;;;;;5033717;28;20223;-30
2023/10/21 03:11:42;;;;;;;1.07;0.30;;;12.50;99.90;;;;;;5030900;28;20193;-34
2023/10/21 03:14:08;;;;;;;0.40;0.33;;;12.50;99.90;;;;;;5038162;23;20217;-30
2023/10/21 03:16:34;;;;;;;0.30;0.30;;;12.50;99.90;;;;;;5014860;28;20224;-31
2023/10/21 03:19:00;;;;;;;0.40;0.30;;;12.50;99.90;;;;;;5003330;28;20269;-31
2023/10/21 03:21:25;;;;;;;1.03;0.40;;;12.40;99.90;;;;;;5021354;28;20206;-31
2023/10/21 03:23:51;;;;;;;0.60;0.40;;;12.50;99.90;;;;;;5004669;28;20175;-31
2023/10/21 03:26:17;;;;;;;0.80;0.60;;;12.50;99.90;;;;;;5000751;28;20222;-32
2023/10/21 03:28:43;;;;;;;0.40;0.40;;;12.40;99.90;;;;;;5009908;28;20201;-31
2023/10/21 03:31:09;;;;;;;0.83;0.47;;;12.40;99.90;;;;;;5017510;28;20271;-31
2023/10/21 03:33:35;;;;;;;2.23;0.70;;;12.40;99.90;;;;;;5020843;28;20443;-30
2023/10/21 03:36:06;;;;;;;0.63;0.57;;;12.40;99.90;;;;;;5019013;28;20198;-31
2023/10/21 03:38:32;;;;;;;0.93;0.60;;;12.40;99.90;;;;;;5023490;28;20542;-31
2023/10/21 03:41:09;;;;;;;0.80;0.50;;;12.40;99.90;;;;;;5000939;28;20746;-30
2023/10/21 03:43:35;;;;;;;0.40;0.40;;;12.30;99.90;;;;;;5007131;28;20174;-30
2023/10/21 03:46:04;;;;;;;0.30;0.30;;;12.30;99.90;;;;;;4995762;28;20203;-30
2023/10/21 03:48:30;;;;;;;0.87;0.67;;;12.30;99.90;;;;;;5004326;28;20199;-30
2023/10/21 03:51:07;;;;;;;0.50;0.50;;;12.20;99.90;;;;;;5010119;28;20199;-30
2023/10/21 03:53:33;;;;;;;0.40;0.40;;;12.20;99.90;;;;;;5007129;28;20261;-31
2023/10/21 03:56:00;;;;;;;1.27;0.73;;;12.20;99.90;;;;;;5005794;28;20213;-30
2023/10/21 03:58:26;;;;;;;0.40;0.40;;;12.10;99.90;;;;;;5017142;28;20217;-31
2023/10/21 04:00:54;;;;;;;0.40;0.40;;;12.10;99.90;;;;;;4992548;28;20749;-31
2023/10/21 04:03:20;;;;;;;0.60;0.60;;;12.00;99.90;;;;;;4989850;28;20185;-30
2023/10/21 04:05:47;;;;;;;1.70;1.50;;;12.00;99.90;;;;;;5020328;28;20190;-30
2023/10/21 04:08:12;;;;;;;3.43;2.93;;;12.00;99.90;;;;;;5015522;28;20190;-30
2023/10/21 04:10:38;;;;;;;0.70;0.70;;;11.90;99.90;;;;;;4994895;28;20198;-30
2023/10/21 04:13:04;;;;;;;0.50;0.50;;;11.80;99.90;;;;;;5023540;28;20281;-30
2023/10/21 04:15:31;;;;;;;0.50;0.50;;;11.80;99.90;;;;;;5000820;28;20210;-30
2023/10/21 04:17:57;;;;;;;0.50;0.50;;;11.70;99.90;;;;;;5008837;28;20186;-30
2023/10/21 04:20:23;;;;;;;0.60;0.50;;;11.70;99.90;;;;;;4996632;28;20235;-30
2023/10/21 04:22:49;;;;;;;0.70;0.60;;;11.60;99.90;;;;;;5003359;28;20234;-30
2023/10/21 04:25:16;;;;;;;0.77;0.50;;;11.50;99.90;;;;;;5021081;28;20228;-30
2023/10/21 04:27:42;;;;;;;0.40;0.40;;;11.50;99.90;;;;;;5015370;28;20670;-30
2023/10/21 04:30:08;;;;;;;2.10;0.43;;;11.40;99.90;;;;;;4994584;28;20180;-30
2023/10/21 04:32:34;;;;;;;2.10;0.60;;;11.40;99.90;;;;;;5020990;28;20186;-31
2023/10/21 04:35:00;;;;;;;0.67;0.50;;;11.40;99.90;;;;;;5026587;28;20220;-31
2023/10/21 04:37:26;;;;;;;0.60;0.40;;;11.30;99.90;;;;;;5006024;28;20183;-30
2023/10/21 04:39:53;;;;;;;0.60;0.60;;;11.30;99.90;;;;;;4999947;28;20189;-30
2023/10/21 04:42:19;;;;;;;0.70;0.70;;;11.30;99.90;;;;;;5006798;28;20260;-30
2023/10/21 04:44:45;;;;;;;0.50;0.50;;;11.20;99.90;;;;;;5005597;28;20202;-30
2023/10/21 04:47:12;;;;;;;0.67;0.60;;;11.20;99.90;;;;;;5028853;28;20214;-30
2023/10/21 04:49:38;;;;;;;0.70;0.70;;;11.30;99.90;;;;;;4999519;28;20181;-30
2023/10/21 04:52:04;;;;;;;0.60;0.60;;;11.30;99.90;;;;;;5015296;28;20221;-30
2023/10/21 04:54:30;;;;;;;0.43;0.43;;;11.30;99.90;;;;;;5023196;28;20199;-30
2023/10/21 04:56:56;;;;;;;0.40;0.40;;;11.20;99.90;;;;;;5019684;28;20201;-30
2023/10/21 04:59:21;;;;;;;0.60;0.60;;;11.30;99.90;;;;;;5006305;28;20241;-30
2023/10/21 05:01:47;;;;;;;0.50;0.50;;;11.30;99.90;;;;;;4994975;28;20222;-30
2023/10/21 05:04:13;;;;;;;0.87;0.50;;;11.30;99.90;;;;;;5011013;28;20185;-30
2023/10/21 05:06:39;;;;;;;0.60;0.60;;;11.30;99.90;;;;;;5010242;28;20251;-30
2023/10/21 05:09:05;;;;;;;0.60;0.60;;;11.40;99.90;;;;;;5012623;28;20190;-30
2023/10/21 05:11:30;;;;;;;0.93;0.50;;;11.40;99.90;;;;;;5026243;28;20193;-30
2023/10/21 05:13:56;;;;;;;0.50;0.50;;;11.40;99.90;;;;;;5020677;28;20187;-30
2023/10/21 05:16:22;;;;;;;0.80;0.53;;;11.40;99.90;;;;;;5002716;28;20221;-31
2023/10/21 05:18:48;;;;;;;0.70;0.70;;;11.40;99.90;;;;;;5007996;28;20197;-29
2023/10/21 05:21:15;;;;;;;0.70;0.50;;;11.40;99.90;;;;;;5009310;28;20221;-30
2023/10/21 05:23:40;;;;;;;1.07;0.50;;;11.40;99.90;;;;;;5003032;28;20192;-30
2023/10/21 05:26:07;;;;;;;0.53;0.53;;;11.40;99.90;;;;;;5018862;28;20289;-30
2023/10/21 05:28:33;;;;;;;0.60;0.50;;;11.40;99.90;;;;;;5002192;28;20523;-31
2023/10/21 05:31:01;;;;;;;2.47;0.87;;;11.40;99.90;;;;;;4994940;28;20193;-30
2023/10/21 05:33:27;;;;;;;0.73;0.73;;;11.30;99.90;;;;;;5006827;28;20221;-31
2023/10/21 05:36:00;;;;;;;0.63;0.63;;;11.30;99.90;;;;;;5007892;28;20238;-30
2023/10/21 05:38:26;;;;;;;0.63;0.60;;;11.30;99.90;;;;;;4998709;28;20193;-30
2023/10/21 05:40:52;;;;;;;1.47;0.50;;;11.30;99.90;;;;;;5032139;28;20195;-30
2023/10/21 05:43:18;;;;;;;0.50;0.50;;;11.30;99.90;;;;;;5007375;28;20254;-30
2023/10/21 05:45:44;;;;;;;1.10;1.00;;;11.30;99.90;;;;;;5014842;28;20302;-31
2023/10/21 05:48:10;;;;;;;1.97;1.60;;;11.30;99.90;;;;;;5015315;28;20188;-30
2023/10/21 05:50:37;;;;;;;0.77;0.70;;;11.30;99.90;;;;;;5015358;28;20185;-31
2023/10/21 05:53:06;;;;;;;0.80;0.70;;;11.30;99.90;;;;;;5024320;28;20254;-30
2023/10/21 05:55:32;;;;;;;1.10;0.90;;;11.30;99.90;;;;;;5008500;28;20288;-30
2023/10/21 05:57:58;;;;;;;1.40;0.90;;;11.30;99.90;;;;;;5015460;28;20185;-30
2023/10/21 06:00:25;;;;;;;0.67;0.67;;;11.20;99.90;;;;;;4997656;28;20304;-30
2023/10/21 06:02:51;;;;;;;0.80;0.70;;;11.20;99.90;;;;;;5018497;28;20184;-30
2023/10/21 06:05:17;;;;;;;1.50;0.90;;;11.20;99.90;;;;;;5033140;28;20266;-30
2023/10/21 06:07:43;;;;;;;0.60;0.60;;;11.20;99.90;;;;;;5015016;28;20281;-30
2023/10/21 06:10:09;;;;;;;0.60;0.50;;;11.20;99.90;;;;;;5031020;28;20209;-30
2023/10/21 06:12:35;;;;;;;1.27;0.70;;;11.20;99.90;;;;;;5015050;28;20175;-30
2023/10/21 06:15:01;;;;;;;1.03;0.70;;;11.20;99.90;;;;;;5014768;28;20249;-30
2023/10/21 06:17:27;;;;;;;0.87;0.50;;;11.20;99.90;;;;;;5014789;28;20179;-30
2023/10/21 06:19:53;;;;;;;1.80;0.70;;;11.20;99.90;;;;;;5031176;28;20182;-30
2023/10/21 06:22:19;;;;;;;1.13;0.90;;;11.20;99.90;;;;;;5014528;28;20213;-30
2023/10/21 06:24:46;;;;;;;3.03;1.60;;;11.20;99.90;;;;;;5008686;28;20210;-30
2023/10/21 06:27:12;;;;;;;2.60;1.80;;;11.10;99.90;;;;;;5012704;28;20184;-30
2023/10/21 06:29:38;;;;;;;2.27;2.00;;;11.10;99.90;;;;;;5000486;28;20236;-30
2023/10/21 06:32:06;;;;;;;3.90;1.90;;;11.10;99.90;;;;;;5011692;28;20308;-30
2023/10/21 06:34:33;;;;;;;4.17;2.90;;;11.10;99.90;;;;;;5007502;28;20261;-29
2023/10/21 06:36:59;;;;;;;2.63;2.43;;;11.00;99.90;;;;;;5023136;28;20186;-30
2023/10/21 06:39:25;;;;;;;2.80;2.30;;;10.90;99.90;;;;;;5026302;28;20190;-29
2023/10/21 06:41:51;;;;;;;2.23;2.00;;;10.90;99.90;;;;;;5009542;28;20210;-29
2023/10/21 06:44:17;;;;;;;2.60;1.77;;;10.90;99.90;;;;;;5014080;28;20186;-30
2023/10/21 06:46:43;;;;;;;1.77;1.67;;;10.90;99.90;;;;;;5014544;28;20272;-29
2023/10/21 06:49:09;;;;;;;2.73;1.93;;;10.90;99.90;;;;;;5013498;28;20180;-29
2023/10/21 06:51:36;;;;;;;2.53;2.30;;;10.90;99.90;;;;;;5014667;28;20633;-29
2023/10/21 06:54:05;;;;;;;2.70;2.50;;;10.90;99.90;;;;;;5030459;28;20194;-29
2023/10/21 06:56:31;;;;;;;2.80;2.30;;;10.80;99.90;;;;;;5022196;28;20189;-30
2023/10/21 06:58:57;;;;;;;3.60;2.27;;;10.90;99.90;;;;;;5006368;28;20186;-29
2023/10/21 07:01:23;;;;;;;3.80;2.60;;;10.90;99.90;;;;;;5010258;28;20218;-29
2023/10/21 07:03:49;;;;;;;3.33;3.03;;;10.90;99.90;;;;;;5008598;28;20197;-29
2023/10/21 07:06:18;;;;;;;3.33;3.03;;;11.00;99.90;;;;;;5030597;28;20225;-30
2023/10/21 07:08:44;;;;;;;4.20;2.90;;;11.00;99.90;;;;;;5030451;28;20174;-29
2023/10/21 07:11:10;;;;;;;4.40;3.67;;;11.10;99.90;;;;;;5013819;28;20200;-29
2023/10/21 07:13:36;;;;;;;4.60;3.33;;;11.20;99.90;;;;;;5030300;28;20186;-30
2023/10/21 07:16:06;;;;;;;4.00;3.33;;;11.30;99.90;;;;;;5030199;28;20238;-29
2023/10/21 07:18:32;;;;;;;4.47;2.60;;;11.50;99.90;;;;;;5013214;28;20272;-30
2023/10/21 07:20:59;;;;;;;4.07;3.67;;;11.60;99.90;;;;;;5014026;28;20202;-29
2023/10/21 07:23:24;;;;;;;1.90;1.77;;;11.70;99.90;;;;;;5030380;28;20181;-30
2023/10/21 07:25:51;;;;;;;1.77;1.10;;;11.90;99.90;;;;;;5013814;28;20212;-30
2023/10/21 07:28:17;;;;;;;1.53;1.10;;;12.00;99.90;;;;;;5030030;28;20265;-29
2023/10/21 07:30:44;;;;;;;1.80;1.50;;;12.00;99.90;;;;;;5010216;28;20189;-29
2023/10/21 07:33:10;;;;;;;2.50;1.20;;;12.20;99.90;;;;;;5017902;28;20198;-29
2023/10/21 07:35:36;;;;;;;2.20;1.60;;;12.30;99.90;;;;;;4998189;28;20213;-29
2023/10/21 07:38:03;;;;;;;3.20;1.40;;;12.40;99.90;;;;;;5013678;28;20182;-30
2023/10/21 07:40:31;;;;;;;3.00;1.90;;;12.50;99.90;;;;;;5012492;28;20298;-31
2023/10/21 07:42:58;;;;;;;2.87;1.80;;;12.60;99.90;;;;;;5029822;28;20178;-30
2023/10/21 07:45:24;;;;;;;1.97;1.50;;;12.70;99.90;;;;;;5005036;28;20201;-29
2023/10/21 07:47:50;;;;;;;1.37;1.13;;;12.90;99.90;;;;;;5013421;28;20178;-29
2023/10/21 07:50:17;;;;;;;2.03;1.00;;;13.00;99.90;;;;;;5013282;28;20193;-29
2023/10/21 07:52:43;;;;;;;1.30;1.10;;;13.10;99.90;;;;;;5005223;28;20210;-29
2023/10/21 07:55:12;;;;;;;1.20;1.10;;;13.20;99.90;;;;;;5013061;28;20199;-29
2023/10/21 07:57:41;;;;;;;1.43;0.70;;;13.40;99.90;;;;;;4997947;28;20184;-29
2023/10/21 08:00:07;;;;;;;4.30;1.20;;;13.50;99.90;;;;;;5008769;28;20192;-29
2023/10/21 08:02:34;;;;;;;1.27;0.60;;;13.70;99.90;;;;;;5014999;28;20179;-28
2023/10/21 08:05:01;;;;;;;1.27;0.73;;;13.80;99.90;;;;;;5013450;28;20206;-29
2023/10/21 08:07:26;;;;;;;0.73;0.50;;;14.00;99.90;;;;;;5003753;28;20186;-29
2023/10/21 08:09:52;;;;;;;2.33;0.70;;;14.20;99.90;;;;;;5032663;28;20197;-29
2023/10/21 08:12:18;;;;;;;0.47;0.47;;;14.30;99.90;;;;;;5005694;28;20190;-29
2023/10/21 08:14:44;;;;;;;1.10;0.50;;;14.50;99.90;;;;;;5024576;28;20214;-29
2023/10/21 08:17:10;;;;;;;2.10;0.73;;;14.60;99.90;;;;;;5023442;28;20282;-29
2023/10/21 08:19:36;;;;;;;2.60;0.50;;;14.70;99.90;;;;;;5019946;28;20194;-30
2023/10/21 08:22:03;;;;;;;2.73;0.40;;;14.80;99.90;;;;;;5028317;28;20202;-29
2023/10/21 08:24:28;;;;;;;1.77;0.60;;;14.80;99.90;;;;;;5034292;28;20206;-29
2023/10/21 08:26:54;;;;;;;0.90;0.40;;;15.00;99.90;;;;;;5033416;28;20191;-29
2023/10/21 08:29:20;;;;;;;1.17;0.50;;;14.90;99.90;;;;;;5023475;28;20176;-30
2023/10/21 08:31:49;;;;;;;1.20;0.67;;;14.90;99.90;;;;;;5013630;28;20226;-29
2023/10/21 08:34:15;;;;;;;1.53;0.70;;;15.00;99.90;;;;;;5013589;28;20206;-29
2023/10/21 08:36:42;;;;;;;1.83;0.50;;;15.10;99.90;;;;;;5012977;28;20644;-29
2023/10/21 08:39:09;;;;;;;1.73;0.70;;;15.20;99.90;;;;;;5009046;28;20182;-29
2023/10/21 08:41:39;;;;;;;1.57;0.60;;;15.30;99.90;;;;;;5013381;28;20207;-28
2023/10/21 08:44:06;;;;;;;1.33;0.50;;;15.40;99.90;;;;;;5013215;28;20230;-29
2023/10/21 08:46:33;;;;;;;2.37;0.93;;;15.30;99.90;;;;;;4996598;28;20668;-29
2023/10/21 08:49:03;;;;;;;0.70;0.60;;;15.20;99.90;;;;;;5012766;28;20278;-29
2023/10/21 08:51:30;;;;;;;2.63;0.90;;;15.10;99.90;;;;;;5005164;28;20277;-29
2023/10/21 08:54:00;;;;;;;0.77;0.50;;;15.00;99.90;;;;;;5006932;28;20216;-29
2023/10/21 08:56:29;;;;;;;1.87;0.87;;;15.00;99.90;;;;;;4995791;28;20538;-28
2023/10/21 08:58:56;;;;;;;1.97;0.80;;;15.00;99.90;;;;;;5004305;28;20194;-30
2023/10/21 09:01:23;;;;;;;1.70;0.90;;;15.00;99.90;;;;;;4996425;28;20207;-29
2023/10/21 09:03:49;;;;;;;1.73;0.80;;;15.10;99.90;;;;;;5027684;28;20264;-29
2023/10/21 09:06:17;;;;;;;3.97;0.93;;;15.00;99.90;;;;;;5024188;28;20203;-29
2023/10/21 09:08:44;;;;;;;1.90;0.90;;;15.10;99.90;;;;;;5001374;28;20184;-29
2023/10/21 09:11:14;;;;;;;1.20;0.70;;;15.20;99.90;;;;;;5012915;28;20195;-31
2023/10/21 09:13:41;;;;;;;1.53;0.70;;;15.40;99.90;;;;;;5031431;28;20186;-29
2023/10/21 09:16:23;;;;;;;2.10;0.70;;;15.60;99.90;;;;;;5016402;28;20221;-30
2023/10/21 09:19:04;;;;;;;2.60;0.90;;;15.70;99.90;;;;;;5019344;28;20240;-29
2023/10/21 09:21:41;;;;;;;2.87;2.27;;;15.90;99.90;;;;;;5032327;28;20202;-30
2023/10/21 09:24:12;;;;;;;1.55;1.00;;;15.90;99.90;;;;;;5016358;28;20182;-30
2023/10/21 09:26:40;;;;;;;2.47;1.20;;;16.00;99.90;;;;;;5033003;28;20219;-29
2023/10/21 09:29:11;;;;;;;4.00;1.77;;;16.10;99.90;;;;;;5025271;28;20656;-30
2023/10/21 09:31:54;;;;;;;1.65;1.13;;;16.20;99.90;;;;;;4996826;28;20183;-30
2023/10/21 09:34:24;;;;;;;1.05;0.68;;;16.30;99.90;;;;;;5006208;28;20665;-29
2023/10/21 09:37:01;;;;;;;1.33;0.70;;;16.30;99.90;;;;;;5016156;28;20218;-30
2023/10/21 09:39:32;;;;;;;2.70;0.73;;;16.50;99.90;;;;;;5032320;28;20188;-29
2023/10/21 09:42:02;;;;;;;1.42;0.80;;;16.50;99.90;;;;;;5016055;28;20206;-30
2023/10/21 09:44:27;;;;;;;0.80;0.80;;;16.40;99.90;;;;;;5032165;28;20210;-29
2023/10/21 09:46:55;;;;;;;1.70;0.82;;;16.50;99.90;;;;;;5026569;28;20187;-29
2023/10/21 09:49:24;;;;;;;0.90;0.70;;;16.60;99.90;;;;;;5021072;28;20194;-29
2023/10/21 09:51:56;;;;;;;1.63;0.88;;;16.60;99.90;;;;;;5015370;28;20186;-28
2023/10/21 09:54:44;;;;;;;1.05;0.50;;;16.70;99.90;;;;;;5031606;28;20186;-30
2023/10/21 09:57:12;;;;;;;1.30;0.70;;;16.80;99.90;;;;;;5008418;28;20191;-29
2023/10/21 09:59:41;;;;;;;1.85;1.00;;;16.80;99.90;;;;;;5005787;28;20179;-30
2023/10/21 10:02:07;;;;;;;1.02;0.50;;;16.80;99.90;;;;;;4995665;28;20211;-31
2023/10/21 10:04:37;;;;;;;2.65;1.35;;;16.90;99.90;;;;;;5032350;28;20206;-30
2023/10/21 10:07:06;;;;;;;1.88;0.70;;;16.80;99.90;;;;;;5031798;28;20186;-30
2023/10/21 10:09:36;;;;;;;2.30;0.75;;;16.90;99.90;;;;;;5031762;28;20175;-31
2023/10/21 10:12:32;;;;;;;1.88;0.90;;;16.80;99.90;;;;;;5014506;28;20272;-31
2023/10/21 10:14:58;;;;;;;2.80;1.20;;;16.80;99.90;;;;;;5007778;28;20226;-31
2023/10/21 10:17:49;;;;;;;1.10;0.65;;;16.80;99.90;;;;;;5031618;28;20187;-29
2023/10/21 10:20:26;;;;;;;0.63;0.50;;;16.80;99.90;;;;;;5031421;28;20186;-30
2023/10/21 10:22:59;;;;;;;1.92;0.68;;;17.00;99.90;;;;;;5014973;28;20182;-30
2023/10/21 10:25:27;;;;;;;1.38;0.70;;;16.90;99.90;;;;;;5014934;28;20210;-29
2023/10/21 10:27:57;;;;;;;0.63;0.60;;;16.90;99.90;;;;;;5014942;28;20262;-31
2023/10/21 10:30:24;;;;;;;0.73;0.65;;;16.70;99.90;;;;;;4996735;28;20238;-30
2023/10/21 10:32:51;;;;;;;1.42;0.85;;;16.70;99.90;;;;;;4999979;28;20248;-29
2023/10/21 10:35:42;;;;;;;1.73;0.63;;;16.70;99.90;;;;;;5014418;28;20214;-29
2023/10/21 10:38:25;;;;;;;1.38;0.65;;;16.80;99.90;;;;;;5031337;28;20182;-29
2023/10/21 10:41:18;;;;;;;1.55;0.80;;;16.90;99.90;;;;;;5030753;28;20209;-28
2023/10/21 10:44:01;;;;;;;1.17;0.70;;;17.00;99.90;;;;;;5006313;28;20193;-29
2023/10/21 10:46:28;;;;;;;1.73;0.73;;;16.90;99.90;;;;;;5012599;28;20206;-29
2023/10/21 10:48:54;;;;;;;1.63;0.80;;;16.90;99.90;;;;;;5007126;28;20183;-29
2023/10/21 10:51:27;;;;;;;1.15;0.80;;;16.90;99.90;;;;;;5014263;28;20240;-30
2023/10/21 10:53:57;;;;;;;1.63;0.90;;;17.00;99.90;;;;;;5031038;28;20186;-28
2023/10/21 10:56:25;;;;;;;1.73;0.90;;;17.10;99.90;;;;;;5029342;28;20210;-33
2023/10/21 10:58:52;;;;;;;2.10;0.47;;;17.10;99.90;;;;;;5002931;28;20203;-29
2023/10/21 11:01:26;;;;;;;3.13;0.70;;;17.00;99.90;;;;;;4994322;28;20213;-29
2023/10/21 11:04:01;;;;;;;1.35;0.70;;;17.00;99.90;;;;;;5024148;28;20254;-29
2023/10/21 11:06:35;;;;;;;1.50;0.60;;;17.00;99.90;;;;;;5013998;28;20201;-29
2023/10/21 11:09:26;;;;;;;2.90;0.90;;;17.10;99.90;;;;;;5030356;28;20182;-29
2023/10/21 11:11:54;;;;;;;2.50;0.75;;;17.00;99.90;;;;;;5017400;28;20302;-29
2023/10/21 11:14:20;;;;;;;2.25;0.77;;;16.90;99.90;;;;;;5031430;28;20197;-30
2023/10/21 11:16:50;;;;;;;1.65;0.55;;;16.80;99.90;;;;;;5013625;28;20193;-29
2023/10/21 11:19:16;;;;;;;1.85;0.70;;;16.70;99.90;;;;;;5031321;28;20269;-30
2023/10/21 11:21:48;;;;;;;1.55;1.00;;;16.50;99.90;;;;;;5028886;28;20206;-29
2023/10/21 11:24:15;;;;;;;1.00;0.75;;;16.60;99.90;;;;;;5030287;28;20178;-30
2023/10/21 11:26:42;;;;;;;1.23;0.50;;;16.60;99.90;;;;;;5029957;28;20174;-30
2023/10/21 11:29:08;;;;;;;1.33;1.00;;;16.60;99.90;;;;;;5006827;28;20187;-29
2023/10/21 11:31:35;;;;;;;0.90;0.60;;;16.70;99.90;;;;;;4993602;28;20195;-30
2023/10/21 11:34:11;;;;;;;1.42;0.80;;;16.70;99.90;;;;;;5025426;28;20210;-29
2023/10/21 11:36:38;;;;;;;1.35;0.60;;;16.70;99.90;;;;;;5029639;28;20186;-30
2023/10/21 11:39:15;;;;;;;1.77;0.90;;;16.80;99.90;;;;;;5021875;28;20213;-30
2023/10/21 11:41:46;;;;;;;3.13;0.90;;;16.90;99.90;;;;;;5013154;28;20206;-29
2023/10/21 11:44:12;;;;;;;2.72;0.77;;;17.00;99.90;;;;;;5031161;28;20229;-30
2023/10/21 11:46:39;;;;;;;1.90;0.90;;;17.10;99.90;;;;;;5029764;28;20227;-30
2023/10/21 11:49:13;;;;;;;1.83;1.08;;;17.10;99.90;;;;;;5030679;28;20185;-30
2023/10/21 11:51:41;;;;;;;1.60;0.90;;;17.10;99.90;;;;;;5029918;28;20186;-29
2023/10/21 11:54:23;;;;;;;1.73;1.00;;;17.20;99.90;;;;;;5013274;28;20225;-30
2023/10/21 12:09:26;;;;;;;1.50;0.88;;;18.20;99.90;;;;;;5024509;28;20218;-29
2023/10/21 12:16:44;;;;;;;1.75;0.90;;;18.10;99.90;;;;;;5028629;28;20206;-30
2023/10/21 12:41:26;;;;;;;1.00;0.70;;;17.10;99.90;;;;;;5011411;28;20221;-30
2023/10/21 12:43:55;;;;;;;1.80;0.70;;;17.20;99.90;;;;;;5011512;28;20277;-30
2023/10/21 12:46:24;;;;;;;1.65;0.75;;;17.30;99.90;;;;;;4990148;28;20269;-30
2023/10/21 12:48:55;;;;;;;1.75;0.60;;;17.40;99.90;;;;;;5000276;28;20183;-30
2023/10/21 12:51:22;;;;;;;1.80;1.10;;;17.60;99.90;;;;;;5017718;28;20178;-30
2023/10/21 12:53:49;;;;;;;0.98;0.50;;;17.70;99.90;;;;;;5009420;28;20199;-29
2023/10/21 12:56:15;;;;;;;1.45;0.80;;;17.80;99.90;;;;;;5012294;28;20210;-30
2023/10/21 12:58:42;;;;;;;2.47;0.82;;;17.90;99.90;;;;;;5012797;28;20187;-30
2023/10/21 13:01:15;;;;;;;1.08;0.77;;;18.00;99.90;;;;;;5012818;28;20214;-30
2023/10/21 13:03:42;;;;;;;1.10;0.77;;;18.00;99.90;;;;;;5015408;28;20258;-30
2023/10/21 13:06:09;;;;;;;2.53;1.00;;;18.00;99.90;;;;;;5032795;28;20194;-30
2023/10/21 13:08:36;;;;;;;2.67;1.10;;;18.10;99.90;;;;;;5032322;28;20198;-30
2023/10/21 13:11:02;;;;;;;1.60;0.77;;;18.20;99.90;;;;;;5032880;28;20207;-29
2023/10/21 13:13:28;;;;;;;1.17;0.65;;;18.30;99.90;;;;;;5032419;28;20186;-29
2023/10/21 13:15:55;;;;;;;1.63;0.60;;;18.50;99.90;;;;;;5015840;28;20214;-30
2023/10/21 13:18:22;;;;;;;1.73;0.88;;;18.40;99.90;;;;;;5015755;28;20213;-30
2023/10/21 13:20:49;;;;;;;2.10;0.73;;;18.30;99.90;;;;;;5018891;28;20236;-30
2023/10/21 13:23:15;;;;;;;2.22;0.88;;;18.40;99.90;;;;;;5024456;28;20187;-30
2023/10/21 13:25:40;;;;;;;1.20;0.60;;;18.40;99.90;;;;;;5015519;28;20198;-31
2023/10/21 13:28:06;;;;;;;1.83;0.60;;;18.50;99.90;;;;;;5033165;28;20233;-31
2023/10/21 13:30:35;;;;;;;1.95;0.82;;;18.60;99.90;;;;;;5013908;28;20186;-31